No particular awareness of the weather is required.    There are no Weather-warnings


Meteo18 Weather Cam more information Meteo18 Weather Cam


Thunder radar more information blitzortung!


Rain radar more information rain snow radar


Visit our other weather sites:

Template documentation
and downloads

And another site



Weather Underground History page Text

Daily Summary for January 29, 2017 Units:  Both    English   Metric
« Previous Day
Next Day »
Daily Weekly Monthly Yearly Custom
  High: Low: Average:
Temperature: 48.9 °F /  9.4 °C 30.9 °F /  -0.6 °C 39.6 °F /  4.2 °C
Dew Point: 43.9 °F /  6.6 °C 30.2 °F /  -1.0 °C 37.4 °F /  3 °C
Humidity: 98 % 79 % 92 %
Wind Speed: 7 mph /  11.3 km/h - 1.1 mph /  1.7 km/h
Wind Gust: 11 mph /  17.7 km/h - -
Wind:- - South
Pressure: 30.2 in /  1023.2 hPa 30.1 in /  1018.8 hPa -
Precipitation: 0.01 in /  0.3 mm    
Historical Graphs
 
 
Tabular Data for January 29, 2017
Time Temperature Dew Point Pressure Wind Wind Speed Wind Gust Humidity Rainfall Rate (Hourly)
00:02 31.3 °F /  -0.4 °C 30.6 °F /  -0.8 °C 30.2 in /  1021.9 hPa Calm   1 mph /  1.6 km/h 97 % 0 in /  0.0 mm
00:07 31.1 °F /  -0.5 °C 30.4 °F /  -0.9 °C 30.2 in /  1021.9 hPa Calm   1 mph /  1.6 km/h 97 % 0 in /  0.0 mm
00:12 30.9 °F /  -0.6 °C 30.2 °F /  -1.0 °C 30.2 in /  1021.9 hPa Calm   1 mph /  1.6 km/h 97 % 0 in /  0.0 mm
00:17 30.9 °F /  -0.6 °C 30.2 °F /  -1.0 °C 30.2 in /  1021.9 hPa Calm     97 % 0 in /  0.0 mm
00:22 31.5 °F /  -0.3 °C 30.7 °F /  -0.7 °C 30.2 in /  1021.9 hPa Calm     97 % 0 in /  0.0 mm
00:32 31.6 °F /  -0.2 °C 30.9 °F /  -0.6 °C 30.2 in /  1021.9 hPa Calm     97 % 0 in /  0.0 mm
00:37 31.5 °F /  -0.3 °C 30.7 °F /  -0.7 °C 30.2 in /  1021.9 hPa Calm     97 % 0 in /  0.0 mm
00:42 31.3 °F /  -0.4 °C 30.6 °F /  -0.8 °C 30.2 in /  1021.9 hPa Calm     97 % 0 in /  0.0 mm
00:52 31.3 °F /  -0.4 °C 30.6 °F /  -0.8 °C 30.2 in /  1021.9 hPa Calm     97 % 0 in /  0.0 mm
00:57 31.6 °F /  -0.2 °C 30.9 °F /  -0.6 °C 30.2 in /  1021.9 hPa Calm     97 % 0 in /  0.0 mm
01:02 31.5 °F /  -0.3 °C 30.7 °F /  -0.7 °C 30.2 in /  1021.9 hPa Calm     97 % 0 in /  0.0 mm
01:12 31.6 °F /  -0.2 °C 30.9 °F /  -0.6 °C 30.2 in /  1021.9 hPa Calm     97 % 0 in /  0.0 mm
01:17 31.6 °F /  -0.2 °C 30.9 °F /  -0.6 °C 30.2 in /  1021.9 hPa Calm     97 % 0 in /  0.0 mm
01:22 32.2 °F /  0.1 °C 31.6 °F /  -0.2 °C 30.2 in /  1021.6 hPa Calm     98 % 0 in /  0.0 mm
01:27 32.4 °F /  0.2 °C 31.8 °F /  -0.1 °C 30.2 in /  1021.6 hPa Calm     98 % 0 in /  0.0 mm
01:32 32.7 °F /  0.4 °C 32.2 °F /  0.1 °C 30.2 in /  1021.6 hPa Calm     98 % 0 in /  0.0 mm
01:37 32.7 °F /  0.4 °C 32.2 °F /  0.1 °C 30.2 in /  1021.6 hPa Calm     98 % 0 in /  0.0 mm
01:42 32.7 °F /  0.4 °C 32.2 °F /  0.1 °C 30.2 in /  1021.6 hPa Calm     98 % 0 in /  0.0 mm
01:47 32.5 °F /  0.3 °C 32 °F /  0.0 °C 30.2 in /  1021.6 hPa Calm     98 % 0 in /  0.0 mm
01:52 32.5 °F /  0.3 °C 32 °F /  0.0 °C 30.2 in /  1021.6 hPa Calm     98 % 0 in /  0.0 mm
01:57 32.5 °F /  0.3 °C 32 °F /  0.0 °C 30.2 in /  1021.6 hPa Calm     98 % 0 in /  0.0 mm
02:02 32.5 °F /  0.3 °C 32 °F /  0.0 °C 30.2 in /  1021.6 hPa Calm     98 % 0 in /  0.0 mm
02:12 32.5 °F /  0.3 °C 32 °F /  0.0 °C 30.2 in /  1021.6 hPa Calm     98 % 0 in /  0.0 mm
02:17 32.5 °F /  0.3 °C 32 °F /  0.0 °C 30.2 in /  1021.6 hPa Calm     98 % 0 in /  0.0 mm
02:22 32.5 °F /  0.3 °C 32 °F /  0.0 °C 30.2 in /  1021.6 hPa Calm     98 % 0 in /  0.0 mm
02:27 32.5 °F /  0.3 °C 32 °F /  0.0 °C 30.2 in /  1021.6 hPa Calm     98 % 0 in /  0.0 mm
02:32 32.5 °F /  0.3 °C 31.8 °F /  -0.1 °C 30.2 in /  1021.6 hPa Calm     97 % 0 in /  0.0 mm
02:37 32.5 °F /  0.3 °C 32 °F /  0.0 °C 30.2 in /  1021.6 hPa Calm     98 % 0 in /  0.0 mm
02:42 32.7 °F /  0.4 °C 32.2 °F /  0.1 °C 30.2 in /  1021.6 hPa Calm     98 % 0 in /  0.0 mm
02:47 32.7 °F /  0.4 °C 32.2 °F /  0.1 °C 30.2 in /  1021.6 hPa Calm     98 % 0 in /  0.0 mm
02:52 33.1 °F /  0.6 °C 32.5 °F /  0.3 °C 30.2 in /  1021.6 hPa Calm     98 % 0 in /  0.0 mm
02:57 32.7 °F /  0.4 °C 32.2 °F /  0.1 °C 30.2 in /  1021.6 hPa Calm     98 % 0 in /  0.0 mm
03:02 32.5 °F /  0.3 °C 32 °F /  0.0 °C 30.2 in /  1021.6 hPa Calm     98 % 0 in /  0.0 mm
03:12 32.4 °F /  0.2 °C 31.6 °F /  -0.2 °C 30.2 in /  1021.6 hPa Calm     97 % 0 in /  0.0 mm
03:17 32.2 °F /  0.1 °C 31.5 °F /  -0.3 °C 30.2 in /  1021.6 hPa Calm     97 % 0 in /  0.0 mm
03:22 32.2 °F /  0.1 °C 31.5 °F /  -0.3 °C 30.2 in /  1021.6 hPa Calm     97 % 0 in /  0.0 mm
03:27 32.4 °F /  0.2 °C 31.6 °F /  -0.2 °C 30.2 in /  1021.6 hPa Calm     97 % 0 in /  0.0 mm
03:32 32.7 °F /  0.4 °C 32.2 °F /  0.1 °C 30.2 in /  1021.6 hPa Calm     98 % 0 in /  0.0 mm
03:37 32.5 °F /  0.3 °C 32 °F /  0.0 °C 30.2 in /  1021.6 hPa Calm     98 % 0 in /  0.0 mm
03:47 32.7 °F /  0.4 °C 32.2 °F /  0.1 °C 30.2 in /  1021.6 hPa Calm     98 % 0 in /  0.0 mm
03:52 33.4 °F /  0.8 °C 32.9 °F /  0.5 °C 30.2 in /  1021.6 hPa Calm     98 % 0 in /  0.0 mm
03:57 33.8 °F /  1.0 °C 33.3 °F /  0.7 °C 30.2 in /  1021.6 hPa Calm   1 mph /  1.6 km/h 98 % 0 in /  0.0 mm
04:02 33.8 °F /  1.0 °C 33.3 °F /  0.7 °C 30.2 in /  1021.6 hPa Calm   1 mph /  1.6 km/h 98 % 0 in /  0.0 mm
04:07 33.8 °F /  1.0 °C 33.3 °F /  0.7 °C 30.2 in /  1021.6 hPa Calm   1 mph /  1.6 km/h 98 % 0 in /  0.0 mm
04:12 34 °F /  1.1 °C 33.4 °F /  0.8 °C 30.2 in /  1021.6 hPa Calm   1 mph /  1.6 km/h 98 % 0 in /  0.0 mm
04:22 34 °F /  1.1 °C 33.4 °F /  0.8 °C 30.2 in /  1021.9 hPa Calm   1 mph /  1.6 km/h 98 % 0 in /  0.0 mm
04:32 34 °F /  1.1 °C 33.4 °F /  0.8 °C 30.2 in /  1021.6 hPa Calm   1 mph /  1.6 km/h 98 % 0 in /  0.0 mm
04:37 34.5 °F /  1.4 °C 34 °F /  1.1 °C 30.2 in /  1021.6 hPa Calm   1 mph /  1.6 km/h 98 % 0 in /  0.0 mm
04:42 34.7 °F /  1.5 °C 34.2 °F /  1.2 °C 30.2 in /  1021.6 hPa Calm     98 % 0 in /  0.0 mm
04:47 34.9 °F /  1.6 °C 34.3 °F /  1.3 °C 30.2 in /  1021.6 hPa Calm     98 % 0 in /  0.0 mm
04:52 34.9 °F /  1.6 °C 34.3 °F /  1.3 °C 30.2 in /  1021.6 hPa Calm     98 % 0 in /  0.0 mm
04:57 34.7 °F /  1.5 °C 34.2 °F /  1.2 °C 30.2 in /  1021.6 hPa Calm     98 % 0 in /  0.0 mm
05:02 34.9 °F /  1.6 °C 34.3 °F /  1.3 °C 30.2 in /  1021.6 hPa Calm     98 % 0 in /  0.0 mm
05:07 35.1 °F /  1.7 °C 34.5 °F /  1.4 °C 30.2 in /  1021.6 hPa Calm     98 % 0 in /  0.0 mm
05:12 35.4 °F /  1.9 °C 34.9 °F /  1.6 °C 30.2 in /  1021.6 hPa Calm     98 % 0 in /  0.0 mm
05:17 35.8 °F /  2.1 °C 35.2 °F /  1.8 °C 30.2 in /  1021.9 hPa Calm     98 % 0 in /  0.0 mm
05:22 35.8 °F /  2.1 °C 35.2 °F /  1.8 °C 30.2 in /  1021.9 hPa Calm     98 % 0.01 in /  0.3 mm
05:27 36 °F /  2.2 °C 35.4 °F /  1.9 °C 30.2 in /  1021.9 hPa Calm     98 % 0.01 in /  0.3 mm
05:32 36 °F /  2.2 °C 35.4 °F /  1.9 °C 30.2 in /  1021.9 hPa SSW 1 mph /  1.6 km/h 1 mph /  1.6 km/h 98 % 0.01 in /  0.3 mm
05:37 36 °F /  2.2 °C 35.4 °F /  1.9 °C 30.2 in /  1021.9 hPa Calm   1 mph /  1.6 km/h 98 % 0.01 in /  0.3 mm
05:42 36 °F /  2.2 °C 35.4 °F /  1.9 °C 30.2 in /  1021.9 hPa Calm   1 mph /  1.6 km/h 98 % 0.01 in /  0.3 mm
05:47 35.8 °F /  2.1 °C 35.2 °F /  1.8 °C 30.2 in /  1021.9 hPa Calm   1 mph /  1.6 km/h 98 % 0.01 in /  0.3 mm
05:52 35.8 °F /  2.1 °C 35.2 °F /  1.8 °C 30.2 in /  1021.9 hPa Calm   1 mph /  1.6 km/h 98 % 0.01 in /  0.3 mm
05:57 35.8 °F /  2.1 °C 35.2 °F /  1.8 °C 30.2 in /  1021.9 hPa Calm   1 mph /  1.6 km/h 98 % 0.01 in /  0.3 mm
06:02 35.8 °F /  2.1 °C 35.2 °F /  1.8 °C 30.2 in /  1021.9 hPa Calm     98 % 0.01 in /  0.3 mm
06:12 35.8 °F /  2.1 °C 35.2 °F /  1.8 °C 30.2 in /  1022.2 hPa Calm     98 % 0.01 in /  0.3 mm
06:17 35.8 °F /  2.1 °C 35.2 °F /  1.8 °C 30.2 in /  1022.2 hPa Calm     98 % 0.01 in /  0.3 mm
06:22 36 °F /  2.2 °C 35.4 °F /  1.9 °C 30.2 in /  1022.2 hPa Calm   1 mph /  1.6 km/h 98 % 0 in /  0.0 mm
06:32 36.1 °F /  2.3 °C 35.6 °F /  2.0 °C 30.2 in /  1022.2 hPa Calm   1 mph /  1.6 km/h 98 % 0 in /  0.0 mm
06:37 36 °F /  2.2 °C 35.4 °F /  1.9 °C 30.2 in /  1022.2 hPa Calm     98 % 0 in /  0.0 mm
06:42 36 °F /  2.2 °C 35.4 °F /  1.9 °C 30.2 in /  1022.2 hPa Calm     98 % 0 in /  0.0 mm
06:47 36 °F /  2.2 °C 35.4 °F /  1.9 °C 30.2 in /  1022.2 hPa Calm     98 % 0 in /  0.0 mm
06:52 35.8 °F /  2.1 °C 35.2 °F /  1.8 °C 30.2 in /  1022.6 hPa Calm     98 % 0 in /  0.0 mm
07:02 35.8 °F /  2.1 °C 35.2 °F /  1.8 °C 30.2 in /  1022.6 hPa Calm     98 % 0 in /  0.0 mm
07:07 36 °F /  2.2 °C 35.4 °F /  1.9 °C 30.2 in /  1022.6 hPa Calm     98 % 0 in /  0.0 mm
07:17 36.1 °F /  2.3 °C 35.6 °F /  2.0 °C 30.2 in /  1022.6 hPa Calm     98 % 0 in /  0.0 mm
07:22 36.3 °F /  2.4 °C 35.8 °F /  2.1 °C 30.2 in /  1022.6 hPa Calm   1 mph /  1.6 km/h 98 % 0 in /  0.0 mm
07:27 36.3 °F /  2.4 °C 35.8 °F /  2.1 °C 30.2 in /  1022.6 hPa Calm   1 mph /  1.6 km/h 98 % 0 in /  0.0 mm
07:32 36.3 °F /  2.4 °C 35.8 °F /  2.1 °C 30.2 in /  1022.9 hPa Calm   2 mph /  3.2 km/h 98 % 0 in /  0.0 mm
07:42 36.1 °F /  2.3 °C 35.6 °F /  2.0 °C 30.2 in /  1022.9 hPa Calm   1 mph /  1.6 km/h 98 % 0 in /  0.0 mm
07:47 36.1 °F /  2.3 °C 35.6 °F /  2.0 °C 30.2 in /  1022.9 hPa Calm   1 mph /  1.6 km/h 98 % 0 in /  0.0 mm
07:52 36.1 °F /  2.3 °C 35.6 °F /  2.0 °C 30.2 in /  1022.9 hPa Calm   1 mph /  1.6 km/h 98 % 0 in /  0.0 mm
07:57 36.3 °F /  2.4 °C 35.8 °F /  2.1 °C 30.2 in /  1022.9 hPa Calm   1 mph /  1.6 km/h 98 % 0 in /  0.0 mm
08:02 36.5 °F /  2.5 °C 36 °F /  2.2 °C 30.2 in /  1022.9 hPa Calm   1 mph /  1.6 km/h 98 % 0 in /  0.0 mm
08:07 36.5 °F /  2.5 °C 36 °F /  2.2 °C 30.2 in /  1022.9 hPa Calm   1 mph /  1.6 km/h 98 % 0 in /  0.0 mm
08:12 36.5 °F /  2.5 °C 36 °F /  2.2 °C 30.2 in /  1022.9 hPa Calm     98 % 0 in /  0.0 mm
08:17 36.5 °F /  2.5 °C 36 °F /  2.2 °C 30.2 in /  1022.9 hPa Calm     98 % 0 in /  0.0 mm
08:22 36.5 °F /  2.5 °C 36 °F /  2.2 °C 30.2 in /  1023.2 hPa Calm     98 % 0 in /  0.0 mm
08:32 36.3 °F /  2.4 °C 35.8 °F /  2.1 °C 30.2 in /  1023.2 hPa Calm     98 % 0 in /  0.0 mm
08:37 36.3 °F /  2.4 °C 35.8 °F /  2.1 °C 30.2 in /  1023.2 hPa Calm     98 % 0 in /  0.0 mm
08:42 36.5 °F /  2.5 °C 36 °F /  2.2 °C 30.2 in /  1023.2 hPa Calm     98 % 0 in /  0.0 mm
08:47 36.5 °F /  2.5 °C 36 °F /  2.2 °C 30.2 in /  1023.2 hPa Calm     98 % 0 in /  0.0 mm
08:52 36.5 °F /  2.5 °C 36 °F /  2.2 °C 30.2 in /  1023.2 hPa Calm     98 % 0 in /  0.0 mm
08:57 36.3 °F /  2.4 °C 35.8 °F /  2.1 °C 30.2 in /  1023.2 hPa Calm     98 % 0 in /  0.0 mm
09:02 36.7 °F /  2.6 °C 36.1 °F /  2.3 °C 30.2 in /  1023.2 hPa Calm     98 % 0 in /  0.0 mm
09:07 36.7 °F /  2.6 °C 36.1 °F /  2.3 °C 30.2 in /  1023.2 hPa Calm     98 % 0 in /  0.0 mm
09:12 36.9 °F /  2.7 °C 36.3 °F /  2.4 °C 30.2 in /  1023.2 hPa Calm     98 % 0 in /  0.0 mm
09:17 37 °F /  2.8 °C 36.5 °F /  2.5 °C 30.2 in /  1023.2 hPa Calm     98 % 0 in /  0.0 mm
09:22 37.4 °F /  3.0 °C 36.9 °F /  2.7 °C 30.2 in /  1023.2 hPa Calm     98 % 0 in /  0.0 mm
09:27 37.6 °F /  3.1 °C 37 °F /  2.8 °C 30.2 in /  1023.2 hPa Calm     98 % 0 in /  0.0 mm
09:32 37.2 °F /  2.9 °C 36.7 °F /  2.6 °C 30.2 in /  1023.2 hPa Calm     98 % 0 in /  0.0 mm
09:37 37.2 °F /  2.9 °C 36.7 °F /  2.6 °C 30.2 in /  1023.2 hPa Calm     98 % 0 in /  0.0 mm
09:42 37.6 °F /  3.1 °C 37 °F /  2.8 °C 30.2 in /  1023.2 hPa Calm     98 % 0 in /  0.0 mm
09:47 37.6 °F /  3.1 °C 37 °F /  2.8 °C 30.2 in /  1023.2 hPa Calm     98 % 0 in /  0.0 mm
09:52 37.8 °F /  3.2 °C 37.2 °F /  2.9 °C 30.2 in /  1023.2 hPa Calm     98 % 0 in /  0.0 mm
09:57 37.8 °F /  3.2 °C 37.2 °F /  2.9 °C 30.2 in /  1023.2 hPa SSE 1 mph /  1.6 km/h   98 % 0 in /  0.0 mm
10:02 37.6 °F /  3.1 °C 37 °F /  2.8 °C 30.2 in /  1023.2 hPa SE 2 mph /  3.2 km/h 2 mph /  3.2 km/h 98 % 0 in /  0.0 mm
10:07 37.6 °F /  3.1 °C 37 °F /  2.8 °C 30.2 in /  1023.2 hPa Calm   2 mph /  3.2 km/h 98 % 0 in /  0.0 mm
10:12 37.6 °F /  3.1 °C 37 °F /  2.8 °C 30.2 in /  1023.2 hPa SE 1 mph /  1.6 km/h 3 mph /  4.8 km/h 98 % 0 in /  0.0 mm
10:17 37.8 °F /  3.2 °C 37.2 °F /  2.9 °C 30.2 in /  1023.2 hPa SE 1 mph /  1.6 km/h 3 mph /  4.8 km/h 98 % 0 in /  0.0 mm
10:22 37.9 °F /  3.3 °C 37.4 °F /  3.0 °C 30.2 in /  1023.2 hPa SE 1 mph /  1.6 km/h 3 mph /  4.8 km/h 98 % 0 in /  0.0 mm
10:32 38.1 °F /  3.4 °C 37.6 °F /  3.1 °C 30.2 in /  1023.2 hPa South 1 mph /  1.6 km/h 3 mph /  4.8 km/h 98 % 0 in /  0.0 mm
10:37 38.3 °F /  3.5 °C 37.8 °F /  3.2 °C 30.2 in /  1023.2 hPa ESE 1 mph /  1.6 km/h 3 mph /  4.8 km/h 98 % 0 in /  0.0 mm
10:42 38.5 °F /  3.6 °C 37.9 °F /  3.3 °C 30.2 in /  1023.2 hPa Calm   3 mph /  4.8 km/h 98 % 0 in /  0.0 mm
10:47 38.5 °F /  3.6 °C 37.9 °F /  3.3 °C 30.2 in /  1023.2 hPa SE 1 mph /  1.6 km/h 3 mph /  4.8 km/h 98 % 0 in /  0.0 mm
10:52 38.7 °F /  3.7 °C 38.1 °F /  3.4 °C 30.2 in /  1023.2 hPa Calm   2 mph /  3.2 km/h 98 % 0 in /  0.0 mm
10:57 38.7 °F /  3.7 °C 38.1 °F /  3.4 °C 30.2 in /  1023.2 hPa Calm   2 mph /  3.2 km/h 98 % 0 in /  0.0 mm
11:02 38.8 °F /  3.8 °C 38.3 °F /  3.5 °C 30.2 in /  1023.2 hPa SE 1 mph /  1.6 km/h 2 mph /  3.2 km/h 98 % 0 in /  0.0 mm
11:07 39 °F /  3.9 °C 38.5 °F /  3.6 °C 30.2 in /  1023.2 hPa SSE 2 mph /  3.2 km/h 2 mph /  3.2 km/h 98 % 0 in /  0.0 mm
11:12 39.2 °F /  4.0 °C 38.7 °F /  3.7 °C 30.2 in /  1023.2 hPa SE 1 mph /  1.6 km/h 2 mph /  3.2 km/h 98 % 0 in /  0.0 mm
11:17 39.4 °F /  4.1 °C 38.8 °F /  3.8 °C 30.2 in /  1022.9 hPa SE 2 mph /  3.2 km/h 2 mph /  3.2 km/h 98 % 0 in /  0.0 mm
11:22 39.4 °F /  4.1 °C 38.8 °F /  3.8 °C 30.2 in /  1022.9 hPa SE 1 mph /  1.6 km/h 3 mph /  4.8 km/h 98 % 0 in /  0.0 mm
11:32 39.9 °F /  4.4 °C 39.4 °F /  4.1 °C 30.2 in /  1022.9 hPa SSE 1 mph /  1.6 km/h 4 mph /  6.4 km/h 98 % 0 in /  0.0 mm
11:37 40.3 °F /  4.6 °C 39.7 °F /  4.3 °C 30.2 in /  1022.9 hPa Calm   4 mph /  6.4 km/h 98 % 0 in /  0.0 mm
11:42 40.6 °F /  4.8 °C 40.1 °F /  4.5 °C 30.2 in /  1022.9 hPa SE 2 mph /  3.2 km/h 4 mph /  6.4 km/h 98 % 0 in /  0.0 mm
11:47 41 °F /  5.0 °C 40.5 °F /  4.7 °C 30.2 in /  1022.9 hPa SSE 3 mph /  4.8 km/h 4 mph /  6.4 km/h 98 % 0 in /  0.0 mm
11:52 41.4 °F /  5.2 °C 40.8 °F /  4.9 °C 30.2 in /  1022.9 hPa South 4 mph /  6.4 km/h 4 mph /  6.4 km/h 98 % 0 in /  0.0 mm
11:57 41.5 °F /  5.3 °C 41 °F /  5.0 °C 30.2 in /  1022.9 hPa South 1 mph /  1.6 km/h 4 mph /  6.4 km/h 98 % 0 in /  0.0 mm
12:02 41.9 °F /  5.5 °C 41.4 °F /  5.2 °C 30.2 in /  1022.9 hPa SE 1 mph /  1.6 km/h 5 mph /  8.0 km/h 98 % 0 in /  0.0 mm
12:07 42.1 °F /  5.6 °C 41.5 °F /  5.3 °C 30.2 in /  1022.6 hPa SE 1 mph /  1.6 km/h 5 mph /  8.0 km/h 98 % 0 in /  0.0 mm
12:12 42.4 °F /  5.8 °C 41.7 °F /  5.4 °C 30.2 in /  1022.6 hPa Calm   5 mph /  8.0 km/h 97 % 0 in /  0.0 mm
12:17 42.4 °F /  5.8 °C 41.7 °F /  5.4 °C 30.2 in /  1022.6 hPa SSE 1 mph /  1.6 km/h 4 mph /  6.4 km/h 97 % 0 in /  0.0 mm
12:22 42.6 °F /  5.9 °C 41.9 °F /  5.5 °C 30.2 in /  1022.6 hPa SE 2 mph /  3.2 km/h 4 mph /  6.4 km/h 97 % 0 in /  0.0 mm
12:32 43 °F /  6.1 °C 41.9 °F /  5.5 °C 30.2 in /  1022.6 hPa SW 4 mph /  6.4 km/h 4 mph /  6.4 km/h 96 % 0 in /  0.0 mm
12:37 43.2 °F /  6.2 °C 41.9 °F /  5.5 °C 30.2 in /  1022.6 hPa SSW 4 mph /  6.4 km/h 6 mph /  9.7 km/h 95 % 0 in /  0.0 mm
12:42 43.5 °F /  6.4 °C 42.3 °F /  5.7 °C 30.2 in /  1022.2 hPa SSW 4 mph /  6.4 km/h 6 mph /  9.7 km/h 95 % 0 in /  0.0 mm
12:47 43.5 °F /  6.4 °C 41.7 °F /  5.4 °C 30.2 in /  1022.2 hPa SW 4 mph /  6.4 km/h 9 mph /  14.5 km/h 93 % 0 in /  0.0 mm
12:57 44.4 °F /  6.9 °C 42.3 °F /  5.7 °C 30.2 in /  1022.2 hPa SW 6 mph /  9.7 km/h 9 mph /  14.5 km/h 92 % 0 in /  0.0 mm
13:02 45.3 °F /  7.4 °C 43.2 °F /  6.2 °C 30.2 in /  1022.2 hPa South 6 mph /  9.7 km/h 9 mph /  14.5 km/h 92 % 0 in /  0.0 mm
13:12 46 °F /  7.8 °C 43.3 °F /  6.3 °C 30.2 in /  1021.9 hPa SSW 6 mph /  9.7 km/h 9 mph /  14.5 km/h 90 % 0 in /  0.0 mm
13:17 46.4 °F /  8.0 °C 43.3 °F /  6.3 °C 30.2 in /  1021.9 hPa SW 6 mph /  9.7 km/h 11 mph /  17.7 km/h 89 % 0 in /  0.0 mm
13:22 46.4 °F /  8.0 °C 43 °F /  6.1 °C 30.2 in /  1021.9 hPa SW 3 mph /  4.8 km/h 11 mph /  17.7 km/h 88 % 0 in /  0.0 mm
13:27 46.4 °F /  8.0 °C 43 °F /  6.1 °C 30.2 in /  1021.9 hPa SSW 3 mph /  4.8 km/h 11 mph /  17.7 km/h 88 % 0 in /  0.0 mm
13:32 46.6 °F /  8.1 °C 43.5 °F /  6.4 °C 30.2 in /  1021.9 hPa SSW 5 mph /  8.0 km/h 10 mph /  16.1 km/h 89 % 0 in /  0.0 mm
13:37 46.8 °F /  8.2 °C 42.8 °F /  6.0 °C 30.2 in /  1021.9 hPa WSW 7 mph /  11.3 km/h 8 mph /  12.9 km/h 86 % 0 in /  0.0 mm
13:42 46.9 °F /  8.3 °C 43.5 °F /  6.4 °C 30.2 in /  1021.6 hPa South 2 mph /  3.2 km/h 8 mph /  12.9 km/h 88 % 0 in /  0.0 mm
13:47 46.9 °F /  8.3 °C 43 °F /  6.1 °C 30.2 in /  1021.6 hPa SW 6 mph /  9.7 km/h 10 mph /  16.1 km/h 86 % 0 in /  0.0 mm
13:52 47.1 °F /  8.4 °C 43.5 °F /  6.4 °C 30.2 in /  1021.6 hPa South 4 mph /  6.4 km/h 10 mph /  16.1 km/h 87 % 0 in /  0.0 mm
13:57 47.3 °F /  8.5 °C 43 °F /  6.1 °C 30.2 in /  1021.6 hPa SW 7 mph /  11.3 km/h 10 mph /  16.1 km/h 85 % 0 in /  0.0 mm
14:02 47.1 °F /  8.4 °C 43.2 °F /  6.2 °C 30.2 in /  1021.2 hPa SW 6 mph /  9.7 km/h 10 mph /  16.1 km/h 86 % 0 in /  0.0 mm
14:12 47.8 °F /  8.8 °C 43.9 °F /  6.6 °C 30.2 in /  1021.2 hPa South 3 mph /  4.8 km/h 10 mph /  16.1 km/h 86 % 0 in /  0.0 mm
14:17 47.5 °F /  8.6 °C 42.3 °F /  5.7 °C 30.2 in /  1020.9 hPa SSW 6 mph /  9.7 km/h 9 mph /  14.5 km/h 82 % 0 in /  0.0 mm
14:22 47.5 °F /  8.6 °C 42.8 °F /  6.0 °C 30.2 in /  1020.9 hPa South 2 mph /  3.2 km/h 9 mph /  14.5 km/h 84 % 0 in /  0.0 mm
14:27 47.5 °F /  8.6 °C 43.2 °F /  6.2 °C 30.2 in /  1020.9 hPa SSE 3 mph /  4.8 km/h 9 mph /  14.5 km/h 85 % 0 in /  0.0 mm
14:32 47.7 °F /  8.7 °C 43 °F /  6.1 °C 30.2 in /  1020.9 hPa South 4 mph /  6.4 km/h 9 mph /  14.5 km/h 84 % 0 in /  0.0 mm
14:37 47.7 °F /  8.7 °C 43.3 °F /  6.3 °C 30.2 in /  1020.9 hPa South 2 mph /  3.2 km/h 6 mph /  9.7 km/h 85 % 0 in /  0.0 mm
14:42 47.7 °F /  8.7 °C 42.8 °F /  6.0 °C 30.2 in /  1020.9 hPa Calm   6 mph /  9.7 km/h 83 % 0 in /  0.0 mm
14:47 47.8 °F /  8.8 °C 43.2 °F /  6.2 °C 30.2 in /  1020.9 hPa SSE 4 mph /  6.4 km/h 6 mph /  9.7 km/h 84 % 0 in /  0.0 mm
14:52 48 °F /  8.9 °C 42.1 °F /  5.6 °C 30.1 in /  1020.5 hPa SW 3 mph /  4.8 km/h 8 mph /  12.9 km/h 80 % 0 in /  0.0 mm
14:57 48.4 °F /  9.1 °C 43.2 °F /  6.2 °C 30.1 in /  1020.5 hPa South 2 mph /  3.2 km/h 8 mph /  12.9 km/h 82 % 0 in /  0.0 mm
15:02 48.6 °F /  9.2 °C 43 °F /  6.1 °C 30.1 in /  1020.5 hPa SSE 5 mph /  8.0 km/h 9 mph /  14.5 km/h 81 % 0 in /  0.0 mm
15:12 48.6 °F /  9.2 °C 43.3 °F /  6.3 °C 30.1 in /  1020.5 hPa SSE 1 mph /  1.6 km/h 9 mph /  14.5 km/h 82 % 0 in /  0.0 mm
15:17 48.6 °F /  9.2 °C 42.3 °F /  5.7 °C 30.1 in /  1020.5 hPa SSE 6 mph /  9.7 km/h 8 mph /  12.9 km/h 79 % 0 in /  0.0 mm
15:22 48.6 °F /  9.2 °C 42.3 °F /  5.7 °C 30.1 in /  1020.5 hPa SW 6 mph /  9.7 km/h 8 mph /  12.9 km/h 79 % 0 in /  0.0 mm
15:27 48.7 °F /  9.3 °C 42.4 °F /  5.8 °C 30.1 in /  1020.5 hPa SSW 4 mph /  6.4 km/h 9 mph /  14.5 km/h 79 % 0 in /  0.0 mm
15:32 48.9 °F /  9.4 °C 43 °F /  6.1 °C 30.1 in /  1020.5 hPa South 3 mph /  4.8 km/h 9 mph /  14.5 km/h 80 % 0 in /  0.0 mm
15:37 48.7 °F /  9.3 °C 42.8 °F /  6.0 °C 30.1 in /  1020.5 hPa South 4 mph /  6.4 km/h 10 mph /  16.1 km/h 80 % 0 in /  0.0 mm
15:42 48.7 °F /  9.3 °C 43.2 °F /  6.2 °C 30.1 in /  1020.5 hPa West 2 mph /  3.2 km/h 10 mph /  16.1 km/h 81 % 0 in /  0.0 mm
15:47 48.4 °F /  9.1 °C 42.4 °F /  5.8 °C 30.1 in /  1020.2 hPa SSE 3 mph /  4.8 km/h 10 mph /  16.1 km/h 80 % 0 in /  0.0 mm
15:52 48.2 °F /  9.0 °C 42.3 °F /  5.7 °C 30.1 in /  1020.2 hPa SSE 2 mph /  3.2 km/h 10 mph /  16.1 km/h 80 % 0 in /  0.0 mm
15:57 48 °F /  8.9 °C 42.4 °F /  5.8 °C 30.1 in /  1020.5 hPa South 2 mph /  3.2 km/h 9 mph /  14.5 km/h 81 % 0 in /  0.0 mm
16:02 48 °F /  8.9 °C 42.4 °F /  5.8 °C 30.1 in /  1020.5 hPa South 1 mph /  1.6 km/h 9 mph /  14.5 km/h 81 % 0 in /  0.0 mm
16:12 47.8 °F /  8.8 °C 41.9 °F /  5.5 °C 30.1 in /  1020.2 hPa South 2 mph /  3.2 km/h 6 mph /  9.7 km/h 80 % 0 in /  0.0 mm
16:17 48 °F /  8.9 °C 42.4 °F /  5.8 °C 30.1 in /  1020.2 hPa SSW 2 mph /  3.2 km/h 6 mph /  9.7 km/h 81 % 0 in /  0.0 mm
16:22 48 °F /  8.9 °C 42.4 °F /  5.8 °C 30.1 in /  1020.2 hPa SE 3 mph /  4.8 km/h 6 mph /  9.7 km/h 81 % 0 in /  0.0 mm
16:27 48 °F /  8.9 °C 42.4 °F /  5.8 °C 30.1 in /  1020.2 hPa SSE 2 mph /  3.2 km/h 6 mph /  9.7 km/h 81 % 0 in /  0.0 mm
16:32 48.2 °F /  9.0 °C 42.3 °F /  5.7 °C 30.1 in /  1020.2 hPa South 1 mph /  1.6 km/h 6 mph /  9.7 km/h 80 % 0 in /  0.0 mm
16:37 48.6 °F /  9.2 °C 42.6 °F /  5.9 °C 30.1 in /  1020.5 hPa South 3 mph /  4.8 km/h 6 mph /  9.7 km/h 80 % 0 in /  0.0 mm
16:42 48.6 °F /  9.2 °C 42.6 °F /  5.9 °C 30.1 in /  1020.5 hPa SSE 2 mph /  3.2 km/h 5 mph /  8.0 km/h 80 % 0 in /  0.0 mm
16:47 48.4 °F /  9.1 °C 42.4 °F /  5.8 °C 30.1 in /  1020.5 hPa South 3 mph /  4.8 km/h 5 mph /  8.0 km/h 80 % 0 in /  0.0 mm
16:57 47.7 °F /  8.7 °C 42.1 °F /  5.6 °C 30.1 in /  1020.2 hPa SW 3 mph /  4.8 km/h 6 mph /  9.7 km/h 81 % 0 in /  0.0 mm
17:02 47.3 °F /  8.5 °C 41.7 °F /  5.4 °C 30.1 in /  1020.2 hPa South 3 mph /  4.8 km/h 6 mph /  9.7 km/h 81 % 0 in /  0.0 mm
17:12 46.8 °F /  8.2 °C 41.5 °F /  5.3 °C 30.1 in /  1020.2 hPa South 1 mph /  1.6 km/h 6 mph /  9.7 km/h 82 % 0 in /  0.0 mm
17:17 46.4 °F /  8.0 °C 41.2 °F /  5.1 °C 30.1 in /  1020.2 hPa South 1 mph /  1.6 km/h 5 mph /  8.0 km/h 82 % 0 in /  0.0 mm
17:22 46.2 °F /  7.9 °C 41 °F /  5.0 °C 30.1 in /  1020.2 hPa South 3 mph /  4.8 km/h 5 mph /  8.0 km/h 82 % 0 in /  0.0 mm
17:27 46 °F /  7.8 °C 40.8 °F /  4.9 °C 30.1 in /  1020.2 hPa SSE 2 mph /  3.2 km/h 5 mph /  8.0 km/h 82 % 0 in /  0.0 mm
17:32 46 °F /  7.8 °C 40.8 °F /  4.9 °C 30.1 in /  1020.2 hPa ESE 2 mph /  3.2 km/h 5 mph /  8.0 km/h 82 % 0 in /  0.0 mm
17:37 45.9 °F /  7.7 °C 40.6 °F /  4.8 °C 30.1 in /  1020.2 hPa SSE 2 mph /  3.2 km/h 4 mph /  6.4 km/h 82 % 0 in /  0.0 mm
17:42 45.7 °F /  7.6 °C 40.8 °F /  4.9 °C 30.1 in /  1020.2 hPa Calm   4 mph /  6.4 km/h 83 % 0 in /  0.0 mm
17:47 45.3 °F /  7.4 °C 40.5 °F /  4.7 °C 30.1 in /  1019.9 hPa SE 1 mph /  1.6 km/h 4 mph /  6.4 km/h 83 % 0 in /  0.0 mm
17:52 45.1 °F /  7.3 °C 40.3 °F /  4.6 °C 30.1 in /  1019.9 hPa ESE 1 mph /  1.6 km/h 4 mph /  6.4 km/h 83 % 0 in /  0.0 mm
17:57 44.8 °F /  7.1 °C 39.9 °F /  4.4 °C 30.1 in /  1020.2 hPa Calm   4 mph /  6.4 km/h 83 % 0 in /  0.0 mm
18:02 44.4 °F /  6.9 °C 39.9 °F /  4.4 °C 30.1 in /  1020.2 hPa Calm   3 mph /  4.8 km/h 84 % 0 in /  0.0 mm
18:12 43.9 °F /  6.6 °C 39.4 °F /  4.1 °C 30.1 in /  1020.2 hPa Calm   2 mph /  3.2 km/h 84 % 0 in /  0.0 mm
18:17 43.3 °F /  6.3 °C 39.2 °F /  4.0 °C 30.1 in /  1020.2 hPa Calm   2 mph /  3.2 km/h 85 % 0 in /  0.0 mm
18:22 43 °F /  6.1 °C 38.8 °F /  3.8 °C 30.1 in /  1020.2 hPa SSE 1 mph /  1.6 km/h 2 mph /  3.2 km/h 85 % 0 in /  0.0 mm
18:32 41.9 °F /  5.5 °C 37.9 °F /  3.3 °C 30.1 in /  1020.2 hPa SSW 1 mph /  1.6 km/h 1 mph /  1.6 km/h 86 % 0 in /  0.0 mm
18:42 41.4 °F /  5.2 °C 37.8 °F /  3.2 °C 30.1 in /  1020.2 hPa Calm   2 mph /  3.2 km/h 87 % 0 in /  0.0 mm
18:52 41.2 °F /  5.1 °C 37.9 °F /  3.3 °C 30.1 in /  1020.2 hPa SSW 1 mph /  1.6 km/h 3 mph /  4.8 km/h 88 % 0 in /  0.0 mm
18:57 41.2 °F /  5.1 °C 37.9 °F /  3.3 °C 30.1 in /  1020.2 hPa Calm   3 mph /  4.8 km/h 88 % 0 in /  0.0 mm
19:02 41.4 °F /  5.2 °C 38.1 °F /  3.4 °C 30.1 in /  1020.2 hPa Calm   2 mph /  3.2 km/h 88 % 0 in /  0.0 mm
19:12 41.2 °F /  5.1 °C 37.9 °F /  3.3 °C 30.1 in /  1019.9 hPa Calm   2 mph /  3.2 km/h 88 % 0 in /  0.0 mm
19:17 41.2 °F /  5.1 °C 37.9 °F /  3.3 °C 30.1 in /  1019.9 hPa Calm   1 mph /  1.6 km/h 88 % 0 in /  0.0 mm
19:22 41 °F /  5.0 °C 37.8 °F /  3.2 °C 30.1 in /  1019.9 hPa Calm   1 mph /  1.6 km/h 88 % 0 in /  0.0 mm
19:27 40.8 °F /  4.9 °C 37.8 °F /  3.2 °C 30.1 in /  1019.9 hPa SW 1 mph /  1.6 km/h   89 % 0 in /  0.0 mm
19:32 40.8 °F /  4.9 °C 37.8 °F /  3.2 °C 30.1 in /  1019.9 hPa South 1 mph /  1.6 km/h   89 % 0 in /  0.0 mm
19:42 40.8 °F /  4.9 °C 38.1 °F /  3.4 °C 30.1 in /  1020.2 hPa SSW 1 mph /  1.6 km/h 1 mph /  1.6 km/h 90 % 0 in /  0.0 mm
19:47 41.2 °F /  5.1 °C 38.5 °F /  3.6 °C 30.1 in /  1019.9 hPa SSW 1 mph /  1.6 km/h 2 mph /  3.2 km/h 90 % 0 in /  0.0 mm
19:52 41.2 °F /  5.1 °C 38.1 °F /  3.4 °C 30.1 in /  1019.9 hPa South 1 mph /  1.6 km/h 2 mph /  3.2 km/h 89 % 0 in /  0.0 mm
19:57 41 °F /  5.0 °C 37.9 °F /  3.3 °C 30.1 in /  1019.9 hPa Calm   2 mph /  3.2 km/h 89 % 0 in /  0.0 mm
20:02 41 °F /  5.0 °C 38.3 °F /  3.5 °C 30.1 in /  1019.9 hPa SSW 1 mph /  1.6 km/h 2 mph /  3.2 km/h 90 % 0 in /  0.0 mm
20:12 41.2 °F /  5.1 °C 38.1 °F /  3.4 °C 30.1 in /  1019.9 hPa SW 1 mph /  1.6 km/h 3 mph /  4.8 km/h 89 % 0 in /  0.0 mm
20:17 41.4 °F /  5.2 °C 38.3 °F /  3.5 °C 30.1 in /  1020.2 hPa SW 3 mph /  4.8 km/h 4 mph /  6.4 km/h 89 % 0 in /  0.0 mm
20:22 41.5 °F /  5.3 °C 38.5 °F /  3.6 °C 30.1 in /  1019.9 hPa SW 2 mph /  3.2 km/h 5 mph /  8.0 km/h 89 % 0 in /  0.0 mm
20:27 41.5 °F /  5.3 °C 38.3 °F /  3.5 °C 30.1 in /  1019.9 hPa South 3 mph /  4.8 km/h 5 mph /  8.0 km/h 88 % 0 in /  0.0 mm
20:32 41.4 °F /  5.2 °C 38.1 °F /  3.4 °C 30.1 in /  1019.9 hPa SSW 2 mph /  3.2 km/h 5 mph /  8.0 km/h 88 % 0 in /  0.0 mm
20:37 41.4 °F /  5.2 °C 38.1 °F /  3.4 °C 30.1 in /  1019.9 hPa SSW 3 mph /  4.8 km/h 5 mph /  8.0 km/h 88 % 0 in /  0.0 mm
20:42 41.2 °F /  5.1 °C 37.9 °F /  3.3 °C 30.1 in /  1019.9 hPa SSW 2 mph /  3.2 km/h 4 mph /  6.4 km/h 88 % 0 in /  0.0 mm
20:47 41.2 °F /  5.1 °C 37.9 °F /  3.3 °C 30.1 in /  1019.9 hPa SSW 1 mph /  1.6 km/h 4 mph /  6.4 km/h 88 % 0 in /  0.0 mm
20:52 41.4 °F /  5.2 °C 38.1 °F /  3.4 °C 30.1 in /  1019.9 hPa SSW 1 mph /  1.6 km/h 3 mph /  4.8 km/h 88 % 0 in /  0.0 mm
20:57 41.4 °F /  5.2 °C 38.1 °F /  3.4 °C 30.1 in /  1019.9 hPa Calm   4 mph /  6.4 km/h 88 % 0 in /  0.0 mm
21:02 41.4 °F /  5.2 °C 38.1 °F /  3.4 °C 30.1 in /  1019.9 hPa Calm   4 mph /  6.4 km/h 88 % 0 in /  0.0 mm
21:07 41.5 °F /  5.3 °C 37.9 °F /  3.3 °C 30.1 in /  1019.9 hPa SSW 1 mph /  1.6 km/h 3 mph /  4.8 km/h 87 % 0 in /  0.0 mm
21:12 41.7 °F /  5.4 °C 38.1 °F /  3.4 °C 30.1 in /  1019.9 hPa SSW 1 mph /  1.6 km/h 3 mph /  4.8 km/h 87 % 0 in /  0.0 mm
21:17 41.7 °F /  5.4 °C 38.1 °F /  3.4 °C 30.1 in /  1019.9 hPa Calm   2 mph /  3.2 km/h 87 % 0 in /  0.0 mm
21:22 41.7 °F /  5.4 °C 38.1 °F /  3.4 °C 30.1 in /  1019.9 hPa SW 1 mph /  1.6 km/h 2 mph /  3.2 km/h 87 % 0 in /  0.0 mm
21:32 41.5 °F /  5.3 °C 37.9 °F /  3.3 °C 30.1 in /  1019.9 hPa SSW 1 mph /  1.6 km/h 2 mph /  3.2 km/h 87 % 0 in /  0.0 mm
21:37 41.5 °F /  5.3 °C 37.9 °F /  3.3 °C 30.1 in /  1019.9 hPa Calm   2 mph /  3.2 km/h 87 % 0 in /  0.0 mm
21:42 41.4 °F /  5.2 °C 37.8 °F /  3.2 °C 30.1 in /  1019.9 hPa South 1 mph /  1.6 km/h 2 mph /  3.2 km/h 87 % 0 in /  0.0 mm
21:47 41.4 °F /  5.2 °C 37.8 °F /  3.2 °C 30.1 in /  1019.9 hPa Calm   2 mph /  3.2 km/h 87 % 0 in /  0.0 mm
21:52 41.4 °F /  5.2 °C 37.8 °F /  3.2 °C 30.1 in /  1019.9 hPa SE 1 mph /  1.6 km/h 2 mph /  3.2 km/h 87 % 0 in /  0.0 mm
21:57 41.2 °F /  5.1 °C 37.6 °F /  3.1 °C 30.1 in /  1019.9 hPa SE 1 mph /  1.6 km/h 2 mph /  3.2 km/h 87 % 0 in /  0.0 mm
22:02 41.2 °F /  5.1 °C 37.9 °F /  3.3 °C 30.1 in /  1019.5 hPa Calm   2 mph /  3.2 km/h 88 % 0 in /  0.0 mm
22:12 40.8 °F /  4.9 °C 37.6 °F /  3.1 °C 30.1 in /  1019.5 hPa SSW 1 mph /  1.6 km/h 2 mph /  3.2 km/h 88 % 0 in /  0.0 mm
22:17 40.5 °F /  4.7 °C 37.2 °F /  2.9 °C 30.1 in /  1019.5 hPa SSW 2 mph /  3.2 km/h 2 mph /  3.2 km/h 88 % 0 in /  0.0 mm
22:22 40.5 °F /  4.7 °C 37.4 °F /  3.0 °C 30.1 in /  1019.5 hPa South 2 mph /  3.2 km/h 2 mph /  3.2 km/h 89 % 0 in /  0.0 mm
22:27 40.5 °F /  4.7 °C 37.2 °F /  2.9 °C 30.1 in /  1019.5 hPa SSW 1 mph /  1.6 km/h 2 mph /  3.2 km/h 88 % 0 in /  0.0 mm
22:32 40.6 °F /  4.8 °C 37.6 °F /  3.1 °C 30.1 in /  1019.5 hPa SSW 2 mph /  3.2 km/h 2 mph /  3.2 km/h 89 % 0 in /  0.0 mm
22:37 40.6 °F /  4.8 °C 37.4 °F /  3.0 °C 30.1 in /  1019.5 hPa SSW 1 mph /  1.6 km/h 3 mph /  4.8 km/h 88 % 0 in /  0.0 mm
22:42 40.8 °F /  4.9 °C 37.6 °F /  3.1 °C 30.1 in /  1019.5 hPa SE 2 mph /  3.2 km/h 4 mph /  6.4 km/h 88 % 0 in /  0.0 mm
22:47 40.8 °F /  4.9 °C 37.6 °F /  3.1 °C 30.1 in /  1019.5 hPa SSW 2 mph /  3.2 km/h 4 mph /  6.4 km/h 88 % 0 in /  0.0 mm
22:52 40.8 °F /  4.9 °C 37.6 °F /  3.1 °C 30.1 in /  1019.5 hPa Calm   3 mph /  4.8 km/h 88 % 0 in /  0.0 mm
22:57 40.8 °F /  4.9 °C 37.6 °F /  3.1 °C 30.1 in /  1019.5 hPa South 1 mph /  1.6 km/h 3 mph /  4.8 km/h 88 % 0 in /  0.0 mm
23:02 41.2 °F /  5.1 °C 37.6 °F /  3.1 °C 30.1 in /  1019.5 hPa SSW 1 mph /  1.6 km/h 3 mph /  4.8 km/h 87 % 0 in /  0.0 mm
23:07 41 °F /  5.0 °C 37.4 °F /  3.0 °C 30.1 in /  1019.5 hPa SSW 1 mph /  1.6 km/h 2 mph /  3.2 km/h 87 % 0 in /  0.0 mm
23:12 40.8 °F /  4.9 °C 37.6 °F /  3.1 °C 30.1 in /  1019.5 hPa Calm   2 mph /  3.2 km/h 88 % 0 in /  0.0 mm
23:17 40.8 °F /  4.9 °C 37.6 °F /  3.1 °C 30.1 in /  1019.5 hPa South 1 mph /  1.6 km/h 2 mph /  3.2 km/h 88 % 0 in /  0.0 mm
23:22 40.8 °F /  4.9 °C 37.6 °F /  3.1 °C 30.1 in /  1019.2 hPa Calm   2 mph /  3.2 km/h 88 % 0 in /  0.0 mm
23:27 40.8 °F /  4.9 °C 37.6 °F /  3.1 °C 30.1 in /  1019.2 hPa SSW 1 mph /  1.6 km/h 3 mph /  4.8 km/h 88 % 0 in /  0.0 mm
23:32 40.5 °F /  4.7 °C 37.2 °F /  2.9 °C 30.1 in /  1019.2 hPa SSW 1 mph /  1.6 km/h 3 mph /  4.8 km/h 88 % 0 in /  0.0 mm
23:37 40.3 °F /  4.6 °C 37.2 °F /  2.9 °C 30.1 in /  1019.2 hPa SSE 2 mph /  3.2 km/h 3 mph /  4.8 km/h 89 % 0 in /  0.0 mm
23:42 40.5 °F /  4.7 °C 37.4 °F /  3.0 °C 30.1 in /  1019.2 hPa Calm   3 mph /  4.8 km/h 89 % 0 in /  0.0 mm
23:47 40.5 °F /  4.7 °C 37.2 °F /  2.9 °C 30.1 in /  1019.2 hPa SSE 1 mph /  1.6 km/h 2 mph /  3.2 km/h 88 % 0 in /  0.0 mm
23:52 40.5 °F /  4.7 °C 37.2 °F /  2.9 °C 30.1 in /  1018.8 hPa SE 1 mph /  1.6 km/h 3 mph /  4.8 km/h 88 % 0 in /  0.0 mm
23:57 40.5 °F /  4.7 °C 37.2 °F /  2.9 °C 30.1 in /  1018.8 hPa Calm   3 mph /  4.8 km/h 88 % 0 in /  0.0 mm
Meteo18
Compliments of Weather Underground - 4 mb

Script developed by  Jim McMurry - jmcmurry@mwt.net Adapted for the template by  Wim van der Kuil - Leuven-Template.eu

You find our weather info also at:

European Weather Network

Weather Underground

Equipment we use:

Weather-station
Davis Vue

Weather-program
Meteohub

Weather-server
Raspberry PI 2 B+

Provider
1 and 1

Davis Vue

Meteohub

Raspberry PI 2 B+

1 and 1